Sierra Bonita, Arizona
Current Conditions -  °F | °C
As of 12:51 PM on Monday 24 Nov 2014 (Local Time) from KSAD Reporting Station
Clear Clear  
Wind Chill: 57°   Ceiling: Unl
Heat Index: 57°   Visibility: 10mi
Dew Point:   Wind: 12mph
Humidity: 10%   Direction: 300°WNW
Pressure: 30.15"   Gusts: 18mph
Location:  32.5598°N, 110.08°W
Report Text: KSAD 241951Z AUTO 30010G16KT 10SM CLR 14/M18 A3015 RMK AO2 SLP198 T01391178
Loading
Personal Weather Stations






























Interactive Weather Map New forecast layout! Learn more

10-Day Weather Forecast

Advertisements
Track Severe Weather on mobile